createdAt,value
2023-03-12T00:00:32.463Z,46.25
2023-03-12T00:01:32.437Z,45.28
2023-03-12T00:02:32.450Z,46.73
2023-03-12T00:03:32.469Z,46.73
2023-03-12T00:04:32.383Z,48.82
2023-03-12T00:05:32.387Z,45.92
2023-03-12T00:06:32.379Z,44.15
2023-03-12T00:07:32.366Z,43.67
2023-03-12T00:08:32.372Z,43.83
2023-03-12T00:09:32.337Z,45.76
2023-03-12T00:10:32.334Z,43.67
2023-03-12T00:11:32.336Z,43.83
2023-03-12T00:12:32.320Z,45.76
2023-03-12T00:13:32.309Z,46.25
2023-03-12T00:14:32.328Z,48.02
2023-03-12T00:15:32.296Z,50.60
2023-03-12T00:16:32.282Z,48.34
2023-03-12T00:17:32.294Z,45.76
2023-03-12T00:18:32.257Z,51.24
2023-03-12T00:19:32.250Z,49.47
2023-03-12T00:20:32.265Z,45.92
2023-03-12T00:21:32.235Z,45.12
2023-03-12T00:22:32.217Z,45.44
2023-03-12T00:23:32.220Z,45.60
2023-03-12T00:24:32.215Z,45.92
2023-03-12T00:25:32.225Z,48.18
2023-03-12T00:26:32.194Z,49.47
2023-03-12T00:27:32.172Z,46.41
2023-03-12T00:28:32.188Z,44.31
2023-03-12T00:29:32.185Z,44.79
2023-03-12T00:30:32.144Z,47.05
2023-03-12T00:31:32.245Z,43.83
2023-03-12T00:32:32.204Z,44.79
2023-03-12T00:33:32.148Z,44.63
2023-03-12T00:34:32.107Z,44.96
2023-03-12T00:35:32.122Z,44.79
2023-03-12T00:36:32.098Z,49.15
2023-03-12T00:37:32.087Z,46.08
2023-03-12T00:38:32.100Z,45.76
2023-03-12T00:39:32.063Z,44.96
2023-03-12T00:40:32.060Z,47.70
2023-03-12T00:41:32.044Z,44.15
2023-03-12T00:42:32.043Z,44.15
2023-03-12T00:43:32.040Z,45.92
2023-03-12T00:44:32.029Z,45.44
2023-03-12T00:45:32.058Z,45.44
2023-03-12T00:46:32.092Z,44.96
2023-03-12T00:47:32.007Z,46.57
2023-03-12T00:48:32.000Z,46.89
2023-03-12T00:49:31.965Z,47.70
2023-03-12T00:50:31.975Z,45.44
2023-03-12T00:51:31.973Z,44.96
2023-03-12T00:52:31.982Z,45.12
2023-03-12T00:53:31.949Z,44.79
2023-03-12T00:54:31.946Z,45.12
2023-03-12T00:55:31.915Z,44.96
2023-03-12T00:56:31.922Z,46.57
2023-03-12T00:57:31.909Z,45.44
2023-03-12T00:58:31.901Z,46.73
2023-03-12T00:59:31.884Z,47.86
2023-03-12T01:00:31.899Z,46.73
2023-03-12T01:01:31.874Z,45.92
2023-03-12T01:02:31.865Z,45.12
2023-03-12T01:03:31.869Z,46.25
2023-03-12T01:04:31.832Z,44.79
2023-03-12T01:05:33.488Z,44.47
2023-03-12T01:06:31.815Z,45.44
2023-03-12T01:07:31.823Z,47.37
2023-03-12T01:08:31.828Z,45.76
2023-03-12T01:09:31.811Z,44.63
2023-03-12T01:10:31.773Z,44.31
2023-03-12T01:11:31.781Z,44.31
2023-03-12T01:12:31.768Z,45.44
2023-03-12T01:13:31.757Z,44.96
2023-03-12T01:14:31.772Z,44.47
2023-03-12T01:15:31.754Z,44.15
2023-03-12T01:16:31.843Z,43.83
2023-03-12T01:17:31.727Z,47.70
2023-03-12T01:18:31.706Z,45.44
2023-03-12T01:19:31.694Z,46.08
2023-03-12T01:20:31.718Z,47.05
2023-03-12T01:21:31.675Z,46.73
2023-03-12T01:22:31.674Z,45.12
2023-03-12T01:23:31.648Z,45.92
2023-03-12T01:24:31.648Z,45.12
2023-03-12T01:25:31.665Z,44.63
2023-03-12T01:26:31.629Z,44.63
2023-03-12T01:27:31.621Z,46.41
2023-03-12T01:28:31.613Z,45.76
2023-03-12T01:29:31.592Z,45.12
2023-03-12T01:30:31.613Z,45.44
2023-03-12T01:31:31.661Z,44.79
2023-03-12T01:32:31.582Z,44.47
2023-03-12T01:33:31.554Z,44.63
2023-03-12T01:34:31.547Z,43.99
2023-03-12T01:36:03.555Z,44.47
2023-03-12T01:36:31.842Z,43.67
2023-03-12T01:37:31.524Z,43.83
2023-03-12T01:38:31.505Z,44.47
2023-03-12T01:39:31.505Z,49.63
2023-03-12T01:40:31.478Z,43.83
2023-03-12T01:41:31.478Z,43.02
2023-03-12T01:42:31.499Z,45.92
2023-03-12T01:43:31.486Z,44.31
2023-03-12T01:44:31.478Z,44.63
2023-03-12T01:45:31.472Z,43.34
2023-03-12T01:46:31.437Z,43.99
2023-03-12T01:47:31.427Z,48.18
2023-03-12T01:48:31.394Z,44.15
2023-03-12T01:49:31.416Z,47.05
2023-03-12T01:50:31.400Z,48.02
2023-03-12T01:51:31.409Z,49.47
2023-03-12T01:52:31.373Z,44.96
2023-03-12T01:53:31.382Z,45.92
2023-03-12T01:54:31.349Z,46.08
2023-03-12T01:55:31.346Z,45.28
2023-03-12T01:56:31.354Z,45.28
2023-03-12T01:57:31.324Z,45.44
2023-03-12T01:58:31.320Z,44.96
2023-03-12T01:59:31.315Z,44.96
2023-03-12T02:00:31.301Z,45.28
2023-03-12T02:01:31.411Z,45.28
2023-03-12T02:02:31.272Z,44.96
2023-03-12T02:03:31.270Z,44.47
2023-03-12T02:04:31.265Z,44.96
2023-03-12T02:05:31.280Z,47.53
2023-03-12T02:06:31.240Z,44.96
2023-03-12T02:07:31.217Z,47.05
2023-03-12T02:08:31.224Z,45.44
2023-03-12T02:09:31.208Z,44.79
2023-03-12T02:10:31.228Z,44.79
2023-03-12T02:11:31.187Z,44.31
2023-03-12T02:12:31.184Z,44.31
2023-03-12T02:13:31.209Z,44.96
2023-03-12T02:14:31.172Z,43.34
2023-03-12T02:15:31.178Z,43.18
2023-03-12T02:16:31.216Z,43.83
2023-03-12T02:17:31.143Z,45.44
2023-03-12T02:18:31.202Z,45.92
2023-03-12T02:19:31.130Z,45.92
2023-03-12T02:20:31.102Z,47.53
2023-03-12T02:21:31.108Z,44.15
2023-03-12T02:22:31.084Z,44.96
2023-03-12T02:23:31.082Z,45.60
2023-03-12T02:24:31.069Z,45.12
2023-03-12T02:25:31.071Z,44.96
2023-03-12T02:26:31.060Z,44.79
2023-03-12T02:27:31.076Z,44.79
2023-03-12T02:28:31.044Z,44.31
2023-03-12T02:29:31.054Z,44.79
2023-03-12T02:30:31.046Z,43.99
2023-03-12T02:31:31.014Z,44.63
2023-03-12T02:32:31.035Z,44.15
2023-03-12T02:33:30.985Z,43.99
2023-03-12T02:34:31.021Z,43.99
2023-03-12T02:35:31.067Z,44.63
2023-03-12T02:36:30.962Z,44.31
2023-03-12T02:37:30.942Z,43.67
2023-03-12T02:38:30.957Z,43.51
2023-03-12T02:39:30.921Z,43.83
2023-03-12T02:40:30.921Z,46.73
2023-03-12T02:41:30.899Z,43.99
2023-03-12T02:42:30.924Z,43.99
2023-03-12T02:43:30.917Z,43.83
2023-03-12T02:44:30.882Z,43.51
2023-03-12T02:45:30.877Z,43.99
2023-03-12T02:46:30.888Z,45.28
2023-03-12T02:47:30.859Z,47.53
2023-03-12T02:48:30.843Z,44.79
2023-03-12T02:49:30.835Z,44.96
2023-03-12T02:50:30.849Z,46.41
2023-03-12T02:51:31.826Z,45.44
2023-03-12T02:52:30.808Z,48.50
2023-03-12T02:53:30.794Z,45.44
2023-03-12T02:54:30.801Z,45.60
2023-03-12T02:55:30.803Z,46.08
2023-03-12T02:56:30.778Z,45.44
2023-03-12T02:57:30.760Z,45.44
2023-03-12T02:58:30.785Z,50.43
2023-03-12T02:59:30.741Z,45.76
2023-03-12T03:00:30.726Z,47.05
2023-03-12T03:01:30.781Z,45.28
2023-03-12T03:02:30.703Z,45.44
2023-03-12T03:03:30.720Z,45.60
2023-03-12T03:04:30.804Z,47.53
2023-03-12T03:05:30.690Z,45.44
2023-03-12T03:06:30.684Z,45.44
2023-03-12T03:07:30.659Z,44.96
2023-03-12T03:08:30.657Z,48.18
2023-03-12T03:09:30.638Z,45.92
2023-03-12T03:10:30.665Z,45.92
2023-03-12T03:11:30.630Z,44.79
2023-03-12T03:12:30.620Z,46.25
2023-03-12T03:13:30.617Z,45.28
2023-03-12T03:14:30.605Z,45.28
2023-03-12T03:15:30.638Z,44.96
2023-03-12T03:16:30.579Z,45.28
2023-03-12T03:17:30.575Z,44.79
2023-03-12T03:18:30.562Z,48.34
2023-03-12T03:19:30.559Z,45.12
2023-03-12T03:20:30.575Z,44.47
2023-03-12T03:21:30.538Z,45.12
2023-03-12T03:22:30.535Z,44.63
2023-03-12T03:23:30.527Z,46.57
2023-03-12T03:24:30.519Z,45.28
2023-03-12T03:25:30.534Z,47.05
2023-03-12T03:26:30.517Z,47.86
2023-03-12T03:27:30.468Z,49.47
2023-03-12T03:28:30.516Z,45.44
2023-03-12T03:29:30.450Z,43.99
2023-03-12T03:30:31.456Z,44.31
2023-03-12T03:31:30.668Z,44.79
2023-03-12T03:32:30.475Z,44.47
2023-03-12T03:33:30.447Z,45.92
2023-03-12T03:34:30.413Z,44.47
2023-03-12T03:35:30.420Z,49.95
2023-03-12T03:36:30.412Z,45.60
2023-03-12T03:37:30.386Z,45.92
2023-03-12T03:38:30.383Z,48.02
2023-03-12T03:39:30.378Z,46.89
2023-03-12T03:40:30.368Z,45.12
2023-03-12T03:41:30.391Z,45.12
2023-03-12T03:42:30.340Z,45.28
2023-03-12T03:43:30.348Z,44.63
2023-03-12T03:44:30.326Z,44.63
2023-03-12T03:45:30.310Z,45.28
2023-03-12T03:46:30.398Z,44.96
2023-03-12T03:47:30.302Z,47.86
2023-03-12T03:48:30.314Z,45.12
2023-03-12T03:49:30.284Z,45.28
2023-03-12T03:50:30.296Z,44.96
2023-03-12T03:51:30.255Z,44.96
2023-03-12T03:52:30.263Z,44.96
2023-03-12T03:53:30.238Z,45.28
2023-03-12T03:54:30.246Z,45.92
2023-03-12T03:55:30.215Z,44.96
2023-03-12T03:56:30.229Z,44.31
2023-03-12T03:57:30.200Z,44.63
2023-03-12T03:58:30.199Z,45.12
2023-03-12T03:59:30.200Z,46.89
2023-03-12T04:00:30.174Z,46.41
2023-03-12T04:01:30.184Z,45.92
2023-03-12T04:02:30.182Z,46.25
2023-03-12T04:03:30.162Z,45.92
2023-03-12T04:04:30.140Z,45.28
2023-03-12T04:05:30.173Z,45.44
2023-03-12T04:06:30.105Z,47.53
2023-03-12T04:07:30.108Z,45.28
2023-03-12T04:08:30.087Z,44.79
2023-03-12T04:09:30.099Z,44.63
2023-03-12T04:10:30.054Z,45.12
2023-03-12T04:11:30.086Z,45.12
2023-03-12T04:12:30.055Z,45.76
2023-03-12T04:13:30.061Z,45.60
2023-03-12T04:14:30.037Z,47.53
2023-03-12T04:15:30.018Z,48.50
2023-03-12T04:16:30.011Z,45.28
2023-03-12T04:17:30.058Z,45.44
2023-03-12T04:18:30.010Z,45.44
2023-03-12T04:19:29.983Z,45.60
2023-03-12T04:20:29.970Z,44.63
2023-03-12T04:21:29.966Z,44.63
2023-03-12T04:22:29.954Z,44.47
2023-03-12T04:23:29.962Z,44.15
2023-03-12T04:24:29.935Z,44.63
2023-03-12T04:25:29.922Z,44.47
2023-03-12T04:26:29.919Z,45.28
2023-03-12T04:27:29.908Z,43.99
2023-03-12T04:28:29.916Z,43.99
2023-03-12T04:29:29.895Z,46.08
2023-03-12T04:30:29.904Z,46.41
2023-03-12T04:31:29.930Z,46.57
2023-03-12T04:32:29.874Z,44.15
2023-03-12T04:33:29.845Z,44.31
2023-03-12T04:34:30.830Z,45.12
2023-03-12T04:35:29.849Z,44.79
2023-03-12T04:36:29.822Z,44.96
2023-03-12T04:37:29.836Z,44.15
2023-03-12T04:38:29.830Z,44.96
2023-03-12T04:39:29.798Z,44.63
2023-03-12T04:40:29.779Z,45.12
2023-03-12T04:41:29.774Z,44.31
2023-03-12T04:42:29.774Z,45.44
2023-03-12T04:43:29.769Z,44.47
2023-03-12T04:44:29.769Z,44.31
2023-03-12T04:45:29.739Z,47.70
2023-03-12T04:46:29.822Z,45.76
2023-03-12T04:47:29.733Z,47.70
2023-03-12T04:48:29.708Z,48.34
2023-03-12T04:49:29.704Z,46.73
2023-03-12T04:50:29.708Z,45.12
2023-03-12T04:51:29.695Z,45.12
2023-03-12T04:52:29.677Z,48.02
2023-03-12T04:53:29.774Z,45.44
2023-03-12T04:54:29.650Z,45.44
2023-03-12T04:55:29.674Z,44.96
2023-03-12T04:56:29.645Z,45.92
2023-03-12T04:57:29.629Z,45.92
2023-03-12T04:58:29.626Z,45.92
2023-03-12T04:59:29.621Z,46.41
2023-03-12T05:00:29.606Z,46.41
2023-03-12T05:01:29.591Z,46.57
2023-03-12T05:02:29.609Z,47.05
2023-03-12T05:03:29.660Z,46.41
2023-03-12T05:04:31.338Z,46.41
2023-03-12T05:05:29.562Z,48.34
2023-03-12T05:06:29.543Z,48.50
2023-03-12T05:07:29.526Z,47.53
2023-03-12T05:08:29.565Z,48.82
2023-03-12T05:09:29.509Z,47.70
2023-03-12T05:10:29.511Z,47.21
2023-03-12T05:11:29.513Z,50.11
2023-03-12T05:12:29.484Z,48.18
2023-03-12T05:13:29.495Z,46.41
2023-03-12T05:14:29.500Z,45.92
2023-03-12T05:15:29.458Z,45.12
2023-03-12T05:16:29.491Z,45.44
2023-03-12T05:17:29.448Z,48.82
2023-03-12T05:18:29.433Z,46.25
2023-03-12T05:19:29.452Z,48.02
2023-03-12T05:20:29.412Z,47.86
2023-03-12T05:21:29.403Z,45.76
2023-03-12T05:22:29.401Z,45.44
2023-03-12T05:23:29.372Z,46.57
2023-03-12T05:24:29.401Z,45.76
2023-03-12T05:25:30.373Z,45.76
2023-03-12T05:26:29.366Z,46.25
2023-03-12T05:27:31.830Z,45.44
2023-03-12T05:28:29.383Z,47.05
2023-03-12T05:29:29.357Z,44.31
2023-03-12T05:30:29.324Z,44.63
2023-03-12T05:31:29.363Z,47.21
2023-03-12T05:32:29.366Z,44.31
2023-03-12T05:33:29.281Z,44.79
2023-03-12T05:34:29.285Z,45.28
2023-03-12T05:35:29.279Z,46.89
2023-03-12T05:36:29.261Z,47.53
2023-03-12T05:37:29.255Z,45.44
2023-03-12T05:38:29.244Z,50.11
2023-03-12T05:39:29.269Z,45.12
2023-03-12T05:40:29.228Z,44.47
2023-03-12T05:41:29.232Z,48.34
2023-03-12T05:42:29.204Z,46.89
2023-03-12T05:43:29.227Z,45.28
2023-03-12T05:44:29.211Z,46.25
2023-03-12T05:45:29.224Z,46.89
2023-03-12T05:46:29.194Z,47.37
2023-03-12T05:47:29.157Z,47.86
2023-03-12T05:48:29.165Z,49.63
2023-03-12T05:49:29.136Z,47.05
2023-03-12T05:50:29.119Z,47.86
2023-03-12T05:51:29.134Z,46.25
2023-03-12T05:52:29.119Z,46.25
2023-03-12T05:53:29.108Z,46.41
2023-03-12T05:54:29.121Z,47.86
2023-03-12T05:55:29.077Z,45.76
2023-03-12T05:56:29.092Z,46.25
2023-03-12T05:57:29.058Z,47.86
2023-03-12T05:58:29.049Z,47.86
2023-03-12T05:59:29.032Z,46.08
2023-03-12T06:00:29.045Z,46.41
2023-03-12T06:01:29.058Z,46.41
2023-03-12T06:02:29.090Z,47.53
2023-03-12T06:03:29.047Z,46.89
2023-03-12T06:04:28.993Z,47.86
2023-03-12T06:05:28.997Z,45.92
2023-03-12T06:06:28.984Z,45.44
2023-03-12T06:07:28.990Z,48.34
2023-03-12T06:08:28.959Z,48.34
2023-03-12T06:09:28.934Z,46.25
2023-03-12T06:10:30.026Z,45.44
2023-03-12T06:11:28.930Z,47.21
2023-03-12T06:12:28.943Z,45.92
2023-03-12T06:13:28.908Z,46.57
2023-03-12T06:14:28.918Z,45.60
2023-03-12T06:15:28.891Z,45.28
2023-03-12T06:16:28.961Z,45.92
2023-03-12T06:17:28.878Z,46.57
2023-03-12T06:18:28.891Z,44.96
2023-03-12T06:19:28.847Z,47.05
2023-03-12T06:20:28.830Z,46.41
2023-03-12T06:21:28.833Z,46.41
2023-03-12T06:22:28.816Z,48.02
2023-03-12T06:23:28.832Z,46.89
2023-03-12T06:24:28.799Z,46.25
2023-03-12T06:25:28.787Z,46.08
2023-03-12T06:26:28.784Z,46.41
2023-03-12T06:27:28.773Z,53.50
2023-03-12T06:28:28.754Z,48.18
2023-03-12T06:29:28.762Z,45.28
2023-03-12T06:30:28.739Z,45.44
2023-03-12T06:31:28.828Z,46.57
2023-03-12T06:32:28.750Z,45.44
2023-03-12T06:33:28.710Z,45.12
2023-03-12T06:34:28.711Z,45.44
2023-03-12T06:35:28.745Z,47.53
2023-03-12T06:36:28.684Z,46.57
2023-03-12T06:37:28.672Z,45.76
2023-03-12T06:38:28.662Z,46.73
2023-03-12T06:39:28.647Z,46.73
2023-03-12T06:40:28.667Z,48.18
2023-03-12T06:41:28.628Z,48.66
2023-03-12T06:42:28.630Z,45.92
2023-03-12T06:43:28.617Z,48.66
2023-03-12T06:44:28.617Z,49.47
2023-03-12T06:45:28.596Z,48.66
2023-03-12T06:46:28.624Z,48.34
2023-03-12T06:47:28.581Z,50.60
2023-03-12T06:48:28.563Z,45.92
2023-03-12T06:49:28.577Z,45.44
2023-03-12T06:50:28.545Z,49.79
2023-03-12T06:51:28.551Z,45.44
2023-03-12T06:52:28.522Z,46.25
2023-03-12T06:53:28.511Z,46.41
2023-03-12T06:54:28.514Z,45.92
2023-03-12T06:55:28.502Z,45.60
2023-03-12T06:56:28.510Z,47.86
2023-03-12T06:57:28.501Z,47.05
2023-03-12T06:58:28.495Z,47.53
2023-03-12T06:59:28.505Z,46.73
2023-03-12T07:00:28.459Z,45.76
2023-03-12T07:01:28.480Z,46.41
2023-03-12T07:02:28.507Z,47.21
2023-03-12T07:03:28.421Z,47.37
2023-03-12T07:04:28.423Z,45.92
2023-03-12T07:05:30.064Z,49.79
2023-03-12T07:06:28.423Z,47.53
2023-03-12T07:07:28.405Z,46.73
2023-03-12T07:08:28.383Z,48.66
2023-03-12T07:09:28.383Z,45.44
2023-03-12T07:10:28.378Z,45.76
2023-03-12T07:11:28.353Z,46.41
2023-03-12T07:12:28.377Z,45.76
2023-03-12T07:13:28.343Z,45.28
2023-03-12T07:14:28.336Z,46.41
2023-03-12T07:15:28.322Z,48.82
2023-03-12T07:16:28.394Z,44.79
2023-03-12T07:17:28.314Z,48.18
2023-03-12T07:18:28.292Z,45.12
2023-03-12T07:19:28.284Z,44.96
2023-03-12T07:20:28.289Z,47.53
2023-03-12T07:21:28.254Z,46.41
2023-03-12T07:22:28.264Z,45.60
2023-03-12T07:23:28.234Z,45.12
2023-03-12T07:24:28.242Z,47.21
2023-03-12T07:25:28.234Z,46.41
2023-03-12T07:26:28.235Z,46.08
2023-03-12T07:27:28.217Z,44.63
2023-03-12T07:28:28.215Z,45.44
2023-03-12T07:29:28.223Z,44.96
2023-03-12T07:30:28.174Z,46.25
2023-03-12T07:31:28.266Z,47.53
2023-03-12T07:32:28.270Z,47.70
2023-03-12T07:33:28.259Z,46.89
2023-03-12T07:34:28.320Z,47.21
2023-03-12T07:35:28.227Z,46.73
2023-03-12T07:37:00.024Z,48.50
2023-03-12T07:37:28.129Z,49.95
2023-03-12T07:38:28.110Z,45.12
2023-03-12T07:39:29.162Z,45.60
2023-03-12T07:40:28.087Z,46.08
2023-03-12T07:41:28.150Z,47.70
2023-03-12T07:42:28.093Z,48.02
2023-03-12T07:43:28.150Z,45.44
2023-03-12T07:44:28.040Z,47.86
2023-03-12T07:45:28.078Z,45.28
2023-03-12T07:46:28.061Z,47.21
2023-03-12T07:47:28.171Z,48.02
2023-03-12T07:48:28.060Z,47.53
2023-03-12T07:49:27.993Z,48.02
2023-03-12T07:50:28.037Z,49.15
2023-03-12T07:51:27.962Z,46.57
2023-03-12T07:52:28.027Z,49.31
2023-03-12T07:53:27.957Z,49.31
2023-03-12T07:54:28.012Z,48.02
2023-03-12T07:55:28.004Z,48.50
2023-03-12T07:56:27.940Z,49.63
2023-03-12T07:57:27.987Z,50.27
2023-03-12T07:58:27.968Z,45.92
2023-03-12T07:59:28.028Z,48.02
2023-03-12T08:00:27.936Z,49.31
2023-03-12T08:01:27.896Z,47.53
2023-03-12T08:02:28.035Z,46.89
2023-03-12T08:03:28.083Z,47.21
2023-03-12T08:04:27.921Z,45.28
2023-03-12T08:05:27.875Z,47.53
2023-03-12T08:06:27.820Z,46.08
2023-03-12T08:07:27.854Z,44.79
2023-03-12T08:08:27.832Z,46.41
2023-03-12T08:09:27.794Z,48.02
2023-03-12T08:10:27.875Z,49.15
2023-03-12T08:11:27.781Z,46.57
2023-03-12T08:12:27.857Z,47.53
2023-03-12T08:13:27.801Z,48.34
2023-03-12T08:14:27.767Z,46.89
2023-03-12T08:15:27.737Z,46.41
2023-03-12T08:16:27.751Z,48.02
2023-03-12T08:17:27.742Z,46.57
2023-03-12T08:18:27.715Z,48.34
2023-03-12T08:19:27.711Z,48.18
2023-03-12T08:20:27.694Z,49.31
2023-03-12T08:21:27.686Z,45.76
2023-03-12T08:22:27.659Z,47.53
2023-03-12T08:23:27.674Z,46.08
2023-03-12T08:24:27.641Z,50.92
2023-03-12T08:25:27.648Z,48.66
2023-03-12T08:26:27.635Z,50.60
2023-03-12T08:27:27.621Z,47.53
2023-03-12T08:28:27.625Z,48.02
2023-03-12T08:29:27.613Z,45.92
2023-03-12T08:30:30.124Z,49.31
2023-03-12T08:31:28.636Z,53.50
2023-03-12T08:32:27.682Z,49.31
2023-03-12T08:33:27.571Z,49.95
2023-03-12T08:34:27.573Z,49.31
2023-03-12T08:35:27.572Z,48.66
2023-03-12T08:36:27.594Z,50.60
2023-03-12T08:37:27.519Z,48.02
2023-03-12T08:38:27.520Z,50.92
2023-03-12T08:39:27.504Z,50.92
2023-03-12T08:40:27.491Z,47.53
2023-03-12T08:41:27.477Z,49.31
2023-03-12T08:42:27.500Z,50.27
2023-03-12T08:43:29.321Z,48.66
2023-03-12T08:44:28.482Z,47.53
2023-03-12T08:45:27.487Z,48.02
2023-03-12T08:46:27.465Z,49.47
2023-03-12T08:47:27.437Z,50.92
2023-03-12T08:48:27.423Z,49.47
2023-03-12T08:49:27.450Z,49.15
2023-03-12T08:50:27.588Z,49.79
2023-03-12T08:51:27.388Z,52.21
2023-03-12T08:52:27.390Z,50.60
2023-03-12T08:53:27.392Z,51.40
2023-03-12T08:54:27.380Z,52.05
2023-03-12T08:55:27.362Z,50.76
2023-03-12T08:56:27.377Z,50.27
2023-03-12T08:57:27.338Z,51.88
2023-03-12T08:58:27.325Z,50.27
2023-03-12T08:59:27.374Z,52.37
2023-03-12T09:00:27.374Z,48.34
2023-03-12T09:01:27.323Z,48.34
2023-03-12T09:02:27.305Z,46.57
2023-03-12T09:03:27.388Z,50.27
2023-03-12T09:04:27.395Z,50.76
2023-03-12T09:05:27.261Z,48.66
2023-03-12T09:06:27.263Z,46.73
2023-03-12T09:07:27.252Z,46.73
2023-03-12T09:08:27.239Z,48.02
2023-03-12T09:09:27.228Z,46.89
2023-03-12T09:10:30.281Z,49.15
2023-03-12T09:11:27.234Z,51.88
2023-03-12T09:12:27.235Z,50.27
2023-03-12T09:13:36.612Z,49.15
2023-03-12T09:15:01.418Z,49.47
2023-03-12T09:15:29.162Z,48.82
2023-03-12T09:16:27.232Z,47.53
2023-03-12T09:17:27.172Z,48.18
2023-03-12T09:18:27.136Z,49.63
2023-03-12T09:19:27.129Z,47.86
2023-03-12T09:20:27.120Z,49.79
2023-03-12T09:21:27.124Z,48.66
2023-03-12T09:22:27.079Z,48.34
2023-03-12T09:23:27.106Z,47.53
2023-03-12T09:24:27.083Z,49.47
2023-03-12T09:25:27.069Z,46.73
2023-03-12T09:26:27.052Z,48.82
2023-03-12T09:27:27.037Z,50.27
2023-03-12T09:28:28.058Z,51.40
2023-03-12T09:29:27.037Z,50.27
2023-03-12T09:30:27.255Z,45.12
2023-03-12T09:31:27.010Z,49.15
2023-03-12T09:32:27.046Z,48.98
2023-03-12T09:33:26.987Z,46.57
2023-03-12T09:34:27.003Z,49.15
2023-03-12T09:35:26.966Z,49.15
2023-03-12T09:36:26.945Z,48.02
2023-03-12T09:37:26.951Z,47.53
2023-03-12T09:38:26.934Z,49.15
2023-03-12T09:39:26.957Z,50.27
2023-03-12T09:40:26.943Z,51.88
2023-03-12T09:41:26.917Z,48.66
2023-03-12T09:42:26.887Z,50.60
2023-03-12T09:43:26.893Z,49.63
2023-03-12T09:44:26.877Z,48.66
2023-03-12T09:45:26.885Z,49.79
2023-03-12T09:46:26.902Z,52.21
2023-03-12T09:47:26.855Z,50.11
2023-03-12T09:48:26.843Z,49.79
2023-03-12T09:49:26.835Z,51.24
2023-03-12T09:50:26.859Z,50.76
2023-03-12T09:51:26.824Z,49.79
2023-03-12T09:52:26.808Z,47.05
2023-03-12T09:53:26.816Z,48.98
2023-03-12T09:54:26.796Z,48.34
2023-03-12T09:55:26.771Z,51.40
2023-03-12T09:56:26.788Z,49.31
2023-03-12T09:57:26.764Z,48.34
2023-03-12T09:58:26.748Z,47.86
2023-03-12T09:59:26.773Z,49.63
2023-03-12T10:00:26.730Z,51.24
2023-03-12T10:01:26.711Z,51.88
2023-03-12T10:02:26.732Z,50.92
2023-03-12T10:03:26.775Z,51.08
2023-03-12T10:04:26.771Z,50.76
2023-03-12T10:05:26.736Z,48.18
2023-03-12T10:06:26.724Z,49.95
2023-03-12T10:07:26.652Z,50.60
2023-03-12T10:08:30.427Z,52.53
2023-03-12T10:09:26.637Z,50.60
2023-03-12T10:10:26.655Z,50.27
2023-03-12T10:11:26.617Z,49.95
2023-03-12T10:12:26.610Z,47.53
2023-03-12T10:13:26.600Z,48.50
2023-03-12T10:14:26.591Z,51.40
2023-03-12T10:15:26.582Z,48.18
2023-03-12T10:16:26.600Z,49.79
2023-03-12T10:17:26.565Z,48.18
2023-03-12T10:18:26.681Z,50.27
2023-03-12T10:19:26.548Z,50.27
2023-03-12T10:20:26.560Z,52.05
2023-03-12T10:21:26.518Z,51.56
2023-03-12T10:22:26.527Z,49.15
2023-03-12T10:23:26.508Z,52.05
2023-03-12T10:24:26.509Z,49.79
2023-03-12T10:25:26.509Z,51.88
2023-03-12T10:26:26.489Z,49.79
2023-03-12T10:27:26.478Z,50.43
2023-03-12T10:28:26.485Z,50.76
2023-03-12T10:29:26.508Z,51.08
2023-03-12T10:30:26.438Z,47.37
2023-03-12T10:31:26.555Z,49.31
2023-03-12T10:32:26.468Z,48.98
2023-03-12T10:33:26.412Z,50.11
2023-03-12T10:34:26.432Z,50.27
2023-03-12T10:35:26.414Z,52.53
2023-03-12T10:36:26.389Z,50.11
2023-03-12T10:37:26.369Z,51.08
2023-03-12T10:38:26.387Z,49.95
2023-03-12T10:39:26.383Z,49.79
2023-03-12T10:40:26.350Z,51.24
2023-03-12T10:41:26.334Z,50.60
2023-03-12T10:42:26.332Z,49.31
2023-03-12T10:43:26.326Z,50.27
2023-03-12T10:44:26.325Z,50.76
2023-03-12T10:45:26.299Z,51.40
2023-03-12T10:46:26.298Z,50.43
2023-03-12T10:47:26.276Z,49.15
2023-03-12T10:48:26.304Z,49.15
2023-03-12T10:49:26.260Z,50.43
2023-03-12T10:50:26.254Z,52.37
2023-03-12T10:51:26.247Z,50.92
2023-03-12T10:52:26.235Z,57.85
2023-03-12T10:53:29.278Z,48.02
2023-03-12T10:54:26.219Z,47.86
2023-03-12T10:55:26.215Z,53.66
2023-03-12T10:56:26.224Z,52.37
2023-03-12T10:57:26.176Z,58.81
2023-03-12T10:58:26.196Z,51.24
2023-03-12T10:59:26.178Z,51.88
2023-03-12T11:00:26.153Z,48.98
2023-03-12T11:01:26.192Z,48.50
2023-03-12T11:02:26.132Z,58.65
2023-03-12T11:03:26.124Z,52.05
2023-03-12T11:04:28.712Z,50.11
2023-03-12T11:05:26.167Z,52.05
2023-03-12T11:06:26.097Z,49.95
2023-03-12T11:07:26.095Z,48.18
2023-03-12T11:08:26.077Z,50.92
2023-03-12T11:09:26.055Z,50.76
2023-03-12T11:10:26.087Z,50.76
2023-03-12T11:11:26.050Z,53.01
2023-03-12T11:12:26.065Z,52.53
2023-03-12T11:13:26.025Z,52.53
2023-03-12T11:14:26.016Z,50.76
2023-03-12T11:15:26.021Z,50.43
2023-03-12T11:16:26.889Z,53.82
2023-03-12T11:17:25.985Z,53.01
2023-03-12T11:18:26.012Z,52.21
2023-03-12T11:19:25.979Z,53.01
2023-03-12T11:20:25.986Z,52.53
2023-03-12T11:21:25.972Z,51.56
2023-03-12T11:22:25.959Z,51.40
2023-03-12T11:23:25.975Z,52.05
2023-03-12T11:24:25.927Z,53.98
2023-03-12T11:25:25.937Z,52.05
2023-03-12T11:26:25.923Z,49.79
2023-03-12T11:27:25.916Z,51.08
2023-03-12T11:28:25.924Z,54.95
2023-03-12T11:29:25.983Z,49.95
2023-03-12T11:30:25.910Z,50.43
2023-03-12T11:31:25.892Z,53.82
2023-03-12T11:32:25.926Z,53.01
2023-03-12T11:33:25.844Z,49.15
2023-03-12T11:34:25.899Z,53.01
2023-03-12T11:35:25.894Z,50.92
2023-03-12T11:36:25.819Z,50.27
2023-03-12T11:37:25.831Z,52.21
2023-03-12T11:38:25.819Z,51.88
2023-03-12T11:39:25.782Z,53.01
2023-03-12T11:40:25.812Z,54.95
2023-03-12T11:41:25.760Z,53.66
2023-03-12T11:42:25.761Z,49.79
2023-03-12T11:43:40.255Z,51.40
2023-03-12T11:44:27.752Z,51.08
2023-03-12T11:45:25.745Z,50.60
2023-03-12T11:46:25.762Z,54.95
2023-03-12T11:47:25.773Z,50.11
2023-03-12T11:48:25.848Z,48.82
2023-03-12T11:49:25.690Z,52.21
2023-03-12T11:50:25.692Z,48.50
2023-03-12T11:51:25.669Z,53.01
2023-03-12T11:52:25.688Z,49.31
2023-03-12T11:53:25.676Z,49.79
2023-03-12T11:54:25.655Z,49.31
2023-03-12T11:55:25.648Z,52.69
2023-03-12T11:56:25.620Z,51.24
2023-03-12T11:57:25.627Z,51.88
2023-03-12T11:58:25.614Z,51.88
2023-03-12T11:59:25.594Z,50.60
2023-03-12T12:00:25.575Z,50.43
2023-03-12T12:01:25.576Z,53.33
2023-03-12T12:02:25.608Z,48.66
2023-03-12T12:03:25.641Z,53.98
2023-03-12T12:04:25.549Z,54.46
2023-03-12T12:05:25.550Z,50.43
2023-03-12T12:06:25.530Z,50.92
2023-03-12T12:07:25.522Z,55.43
2023-03-12T12:08:25.533Z,55.75
2023-03-12T12:09:25.494Z,49.15
2023-03-12T12:10:25.501Z,51.56
2023-03-12T12:11:25.477Z,51.88
2023-03-12T12:12:25.475Z,54.46
2023-03-12T12:13:25.484Z,51.24
2023-03-12T12:14:25.446Z,50.27
2023-03-12T12:15:25.449Z,50.43
2023-03-12T12:16:25.456Z,47.21
2023-03-12T12:17:25.418Z,50.76
2023-03-12T12:18:25.409Z,49.63
2023-03-12T12:19:25.400Z,52.21
2023-03-12T12:20:25.425Z,49.63
2023-03-12T12:21:25.393Z,52.05
2023-03-12T12:22:25.404Z,49.79
2023-03-12T12:23:25.355Z,51.40
2023-03-12T12:24:25.405Z,52.85
2023-03-12T12:25:25.414Z,51.72
2023-03-12T12:26:25.337Z,51.72
2023-03-12T12:27:25.326Z,51.40
2023-03-12T12:28:25.321Z,53.66
2023-03-12T12:29:25.306Z,52.37
2023-03-12T12:30:25.320Z,52.53
2023-03-12T12:31:25.428Z,50.76
2023-03-12T12:32:25.314Z,51.72
2023-03-12T12:33:25.268Z,48.34
2023-03-12T12:34:25.257Z,55.11
2023-03-12T12:35:25.279Z,52.37
2023-03-12T12:36:25.260Z,52.85
2023-03-12T12:37:25.233Z,52.53
2023-03-12T12:38:25.236Z,51.88
2023-03-12T12:39:25.206Z,51.88
2023-03-12T12:40:25.229Z,52.05
2023-03-12T12:41:25.184Z,52.21
2023-03-12T12:42:25.175Z,51.72
2023-03-12T12:43:25.148Z,53.66
2023-03-12T12:44:25.151Z,47.37
2023-03-12T12:45:25.172Z,52.37
2023-03-12T12:46:25.198Z,49.47
2023-03-12T12:47:25.134Z,52.37
2023-03-12T12:48:25.124Z,54.62
2023-03-12T12:49:25.115Z,51.40
2023-03-12T12:50:25.127Z,53.33
2023-03-12T12:51:25.089Z,52.53
2023-03-12T12:52:25.106Z,52.21